Wetterdaten: Woche 24.09.07 - 30.09.07 (KW39)
Datum Zeit Temperatur Luftfeuchte Luftdruck Niederschlag Wind Richtung Sonnenschein Solar Taupunkt Windchill Windben
24.09.2007 00:00 12.5 C 96 % 1020.8 hPa 0.0 l/m 0.5 km/h (0 Bft) O 0.00 h 0 W/m 11.8 C 12.5 C 1.2 km/h (1 Bft)
24.09.2007 01:00 12.7 C 96 % 1020.6 hPa 0.0 l/m 0.0 km/h (0 Bft) O 0.00 h 0 W/m 12.2 C 12.7 C 0.2 km/h (0 Bft)
24.09.2007 02:00 12.6 C 96 % 1020.4 hPa 0.0 l/m 0.0 km/h (0 Bft) N 0.00 h 0 W/m 12.0 C 12.6 C 0.1 km/h (0 Bft)
24.09.2007 03:00 12.3 C 97 % 1019.9 hPa 0.0 l/m 0.3 km/h (0 Bft) O 0.00 h 0 W/m 11.9 C 12.3 C 0.6 km/h (0 Bft)
24.09.2007 04:00 12.1 C 98 % 1019.5 hPa 0.0 l/m 0.4 km/h (0 Bft) O 0.00 h 0 W/m 11.8 C 12.1 C 1.0 km/h (0 Bft)
24.09.2007 05:00 12.2 C 99 % 1019.0 hPa 0.0 l/m 0.0 km/h (0 Bft) N 0.00 h 0 W/m 12.0 C 12.2 C 0.0 km/h (0 Bft)
24.09.2007 06:00 12.0 C 99 % 1018.9 hPa 0.0 l/m 0.0 km/h (0 Bft) N 0.00 h 0 W/m 11.9 C 12.0 C 0.0 km/h (0 Bft)
24.09.2007 07:00 11.9 C 99 % 1019.2 hPa 0.0 l/m 0.0 km/h (0 Bft) N 0.07 h 17 W/m 11.8 C 11.9 C 0.1 km/h (0 Bft)
24.09.2007 08:00 12.3 C 98 % 1019.5 hPa 0.0 l/m 0.0 km/h (0 Bft) N 0.15 h 84 W/m 12.1 C 12.3 C 0.4 km/h (0 Bft)
24.09.2007 09:00 13.9 C 92 % 1019.4 hPa 0.0 l/m 0.0 km/h (0 Bft) N 0.80 h 231 W/m 12.7 C 13.9 C 0.3 km/h (0 Bft)
24.09.2007 10:00 16.4 C 85 % 1018.7 hPa 0.0 l/m 0.4 km/h (0 Bft) O 1.00 h 394 W/m 13.9 C 16.4 C 1.5 km/h (1 Bft)
24.09.2007 11:00 19.2 C 77 % 1017.9 hPa 0.0 l/m 1.2 km/h (1 Bft) S 1.00 h 509 W/m 15.1 C 19.2 C 3.3 km/h (1 Bft)
24.09.2007 12:00 21.3 C 70 % 1017.1 hPa 0.0 l/m 3.5 km/h (1 Bft) S-SO 1.00 h 581 W/m 15.5 C 21.3 C 6.8 km/h (2 Bft)
24.09.2007 13:00 23.0 C 63 % 1016.1 hPa 0.0 l/m 3.5 km/h (1 Bft) SO 1.00 h 603 W/m 15.5 C 23.0 C 6.8 km/h (2 Bft)
24.09.2007 14:00 23.8 C 59 % 1015.3 hPa 0.0 l/m 4.2 km/h (1 Bft) S-SO 1.00 h 571 W/m 15.3 C 23.8 C 8.1 km/h (2 Bft)
24.09.2007 15:00 24.6 C 54 % 1014.6 hPa 0.0 l/m 3.6 km/h (1 Bft) S-SO 1.00 h 499 W/m 14.5 C 24.6 C 7.7 km/h (2 Bft)
24.09.2007 16:00 24.1 C 54 % 1014.3 hPa 0.0 l/m 4.1 km/h (1 Bft) W-SW 0.77 h 321 W/m 14.2 C 24.1 C 8.5 km/h (2 Bft)
24.09.2007 17:00 23.3 C 57 % 1014.2 hPa 0.0 l/m 8.8 km/h (2 Bft) W 0.77 h 221 W/m 14.3 C 23.3 C 14.0 km/h (3 Bft)
24.09.2007 18:00 21.5 C 64 % 1014.9 hPa 0.0 l/m 10.3 km/h (2 Bft) W 0.03 h 36 W/m 14.5 C 21.5 C 15.9 km/h (3 Bft)
24.09.2007 19:00 20.0 C 70 % 1015.4 hPa 0.0 l/m 9.8 km/h (2 Bft) W-NW 0.00 h 9 W/m 14.4 C 20.0 C 14.5 km/h (3 Bft)
24.09.2007 20:00 18.8 C 73 % 1015.9 hPa 0.0 l/m 2.5 km/h (1 Bft) W 0.00 h 0 W/m 14.0 C 18.8 C 4.5 km/h (1 Bft)
24.09.2007 21:00 18.2 C 73 % 1016.1 hPa 0.0 l/m 1.5 km/h (1 Bft) W 0.00 h 0 W/m 13.4 C 18.2 C 3.9 km/h (1 Bft)
24.09.2007 22:00 17.5 C 73 % 1016.2 hPa 0.0 l/m 1.5 km/h (1 Bft) W-SW 0.00 h 0 W/m 12.5 C 17.5 C 3.5 km/h (1 Bft)
24.09.2007 23:00 16.7 C 75 % 1016.1 hPa 0.0 l/m 2.1 km/h (1 Bft) W 0.00 h 0 W/m 12.2 C 16.7 C 3.9 km/h (1 Bft)
25.09.2007 00:00 15.4 C 84 % 1015.8 hPa 0.4 l/m 1.2 km/h (1 Bft) W 0.00 h 0 W/m 12.8 C 15.4 C 3.0 km/h (1 Bft)
25.09.2007 01:00 15.0 C 89 % 1015.5 hPa 0.0 l/m 0.4 km/h (0 Bft) SW 0.00 h 0 W/m 13.3 C 15.0 C 1.1 km/h (1 Bft)
25.09.2007 02:00 14.8 C 93 % 1015.4 hPa 0.0 l/m 2.4 km/h (1 Bft) W 0.00 h 0 W/m 13.7 C 14.8 C 4.5 km/h (1 Bft)
25.09.2007 03:00 14.1 C 90 % 1015.4 hPa 0.2 l/m 16.6 km/h (3 Bft) W 0.00 h 0 W/m 12.6 C 14.1 C 24.8 km/h (4 Bft)
25.09.2007 04:00 12.8 C 87 % 1016.1 hPa 0.2 l/m 9.7 km/h (2 Bft) W-NW 0.00 h 0 W/m 10.8 C 12.8 C 16.1 km/h (3 Bft)
25.09.2007 05:00 12.0 C 89 % 1016.8 hPa 0.0 l/m 13.6 km/h (3 Bft) W-NW 0.00 h 0 W/m 10.3 C 12.0 C 20.0 km/h (4 Bft)
25.09.2007 06:00 11.8 C 89 % 1017.1 hPa 0.0 l/m 12.2 km/h (2 Bft) W 0.00 h 0 W/m 10.0 C 11.8 C 19.0 km/h (3 Bft)
25.09.2007 07:00 11.6 C 88 % 1017.6 hPa 0.0 l/m 7.9 km/h (2 Bft) W 0.00 h 10 W/m 9.7 C 11.6 C 12.7 km/h (3 Bft)
25.09.2007 08:00 11.8 C 86 % 1018.3 hPa 0.0 l/m 5.6 km/h (1 Bft) W-NW 0.00 h 43 W/m 9.5 C 11.8 C 9.3 km/h (2 Bft)
25.09.2007 09:00 12.4 C 85 % 1018.4 hPa 0.0 l/m 5.0 km/h (1 Bft) W 0.00 h 94 W/m 9.8 C 12.4 C 7.8 km/h (2 Bft)
25.09.2007 10:00 12.9 C 81 % 1018.2 hPa 0.0 l/m 4.9 km/h (1 Bft) W-NW 0.00 h 161 W/m 9.8 C 12.9 C 7.9 km/h (2 Bft)
25.09.2007 11:00 13.6 C 78 % 1017.9 hPa 0.0 l/m 3.5 km/h (1 Bft) W-NW 0.00 h 211 W/m 9.9 C 13.6 C 6.1 km/h (2 Bft)
25.09.2007 12:00 13.4 C 77 % 1017.9 hPa 0.0 l/m 4.6 km/h (1 Bft) W 0.00 h 144 W/m 9.5 C 13.4 C 7.5 km/h (2 Bft)
25.09.2007 13:00 13.8 C 74 % 1017.8 hPa 0.0 l/m 3.4 km/h (1 Bft) W-SW 0.00 h 198 W/m 9.2 C 13.8 C 6.0 km/h (2 Bft)
25.09.2007 14:00 14.2 C 72 % 1017.3 hPa 0.0 l/m 1.6 km/h (1 Bft) S-SO 0.00 h 195 W/m 9.3 C 14.2 C 4.4 km/h (1 Bft)
25.09.2007 15:00 14.4 C 69 % 1016.9 hPa 0.0 l/m 2.8 km/h (1 Bft) S 0.00 h 175 W/m 8.8 C 14.4 C 6.3 km/h (2 Bft)
25.09.2007 16:00 14.5 C 70 % 1016.4 hPa 0.0 l/m 3.8 km/h (1 Bft) S-SO 0.22 h 198 W/m 9.1 C 14.5 C 7.2 km/h (2 Bft)
25.09.2007 17:00 13.8 C 72 % 1016.4 hPa 0.0 l/m 5.0 km/h (1 Bft) S-SO 0.10 h 132 W/m 8.8 C 13.8 C 9.8 km/h (2 Bft)
25.09.2007 18:00 12.9 C 72 % 1016.3 hPa 0.0 l/m 5.3 km/h (1 Bft) S-SO 0.00 h 32 W/m 7.9 C 12.9 C 8.7 km/h (2 Bft)
25.09.2007 19:00 12.2 C 73 % 1016.4 hPa 0.0 l/m 3.0 km/h (1 Bft) S-SO 0.00 h 7 W/m 7.4 C 12.2 C 5.3 km/h (1 Bft)
25.09.2007 20:00 11.8 C 76 % 1016.8 hPa 0.0 l/m 1.8 km/h (1 Bft) SO 0.00 h 0 W/m 7.7 C 11.8 C 3.4 km/h (1 Bft)
25.09.2007 21:00 11.3 C 76 % 1017.1 hPa 0.0 l/m 6.5 km/h (2 Bft) O-SO 0.00 h 0 W/m 7.2 C 11.3 C 9.0 km/h (2 Bft)
25.09.2007 22:00 10.6 C 81 % 1017.2 hPa 0.0 l/m 4.8 km/h (1 Bft) O-SO 0.00 h 0 W/m 7.5 C 10.6 C 6.7 km/h (2 Bft)
25.09.2007 23:00 10.5 C 82 % 1017.2 hPa 0.0 l/m 0.3 km/h (0 Bft) SO 0.00 h 0 W/m 7.5 C 10.5 C 0.9 km/h (0 Bft)
26.09.2007 00:00 10.3 C 86 % 1017.1 hPa 0.0 l/m 0.2 km/h (0 Bft) SO 0.00 h 0 W/m 8.0 C 10.3 C 0.8 km/h (0 Bft)
26.09.2007 01:00 10.1 C 86 % 1016.5 hPa 0.0 l/m 0.6 km/h (0 Bft) SO 0.00 h 0 W/m 7.9 C 10.1 C 1.6 km/h (1 Bft)
26.09.2007 02:00 10.1 C 87 % 1016.2 hPa 0.0 l/m 1.2 km/h (1 Bft) SO 0.00 h 0 W/m 8.0 C 10.1 C 2.1 km/h (1 Bft)
26.09.2007 03:00 9.9 C 89 % 1015.6 hPa 0.0 l/m 0.2 km/h (0 Bft) SO 0.00 h 0 W/m 8.2 C 9.9 C 1.1 km/h (1 Bft)
26.09.2007 04:00 9.7 C 92 % 1014.9 hPa 0.0 l/m 1.5 km/h (1 Bft) O-SO 0.00 h 0 W/m 8.4 C 9.6 C 2.6 km/h (1 Bft)
26.09.2007 05:00 9.5 C 91 % 1014.8 hPa 0.0 l/m 0.2 km/h (0 Bft) O-SO 0.00 h 0 W/m 8.2 C 9.5 C 0.8 km/h (0 Bft)
26.09.2007 06:00 9.5 C 91 % 1014.6 hPa 0.0 l/m 0.0 km/h (0 Bft) N 0.00 h 0 W/m 8.1 C 9.5 C 0.1 km/h (0 Bft)
26.09.2007 07:00 9.3 C 91 % 1014.6 hPa 0.2 l/m 0.7 km/h (0 Bft) N-NO 0.00 h 10 W/m 7.9 C 9.3 C 1.9 km/h (1 Bft)
26.09.2007 08:00 9.6 C 90 % 1014.3 hPa 0.0 l/m 0.5 km/h (0 Bft) N 0.00 h 57 W/m 8.0 C 9.6 C 1.4 km/h (1 Bft)
26.09.2007 09:00 10.2 C 86 % 1014.2 hPa 0.0 l/m 1.3 km/h (1 Bft) O-SO 0.00 h 105 W/m 7.9 C 10.2 C 2.7 km/h (1 Bft)
26.09.2007 10:00 10.8 C 84 % 1013.9 hPa 0.0 l/m 1.0 km/h (0 Bft) N-NO 0.00 h 150 W/m 8.3 C 10.8 C 2.4 km/h (1 Bft)
26.09.2007 11:00 11.9 C 79 % 1013.5 hPa 0.0 l/m 1.5 km/h (1 Bft) O-SO 0.17 h 278 W/m 8.4 C 11.9 C 3.6 km/h (1 Bft)
26.09.2007 12:00 12.4 C 74 % 1012.9 hPa 0.0 l/m 3.2 km/h (1 Bft) O-SO 0.02 h 215 W/m 7.9 C 12.4 C 6.0 km/h (2 Bft)
26.09.2007 13:00 12.2 C 73 % 1012.4 hPa 0.0 l/m 5.1 km/h (1 Bft) SO 0.00 h 128 W/m 7.4 C 12.2 C 8.2 km/h (2 Bft)
26.09.2007 14:00 11.8 C 76 % 1011.9 hPa 0.0 l/m 2.7 km/h (1 Bft) SO 0.00 h 130 W/m 7.8 C 11.8 C 5.0 km/h (1 Bft)
26.09.2007 15:00 10.6 C 91 % 1011.6 hPa 1.2 l/m 4.1 km/h (1 Bft) NW 0.00 h 66 W/m 9.1 C 10.6 C 6.4 km/h (2 Bft)
26.09.2007 16:00 9.9 C 95 % 1011.5 hPa 0.2 l/m 0.4 km/h (0 Bft) N-NW 0.00 h 56 W/m 9.0 C 9.9 C 1.2 km/h (1 Bft)
26.09.2007 17:00 10.0 C 96 % 1011.2 hPa 0.2 l/m 0.6 km/h (0 Bft) N 0.00 h 69 W/m 9.3 C 10.0 C 2.0 km/h (1 Bft)
26.09.2007 18:00 9.7 C 96 % 1010.7 hPa 0.0 l/m 0.1 km/h (0 Bft) N 0.00 h 30 W/m 9.1 C 9.7 C 0.3 km/h (0 Bft)
26.09.2007 19:00 9.6 C 94 % 1010.5 hPa 0.0 l/m 0.1 km/h (0 Bft) O 0.00 h 6 W/m 8.6 C 9.6 C 0.5 km/h (0 Bft)
26.09.2007 20:00 9.3 C 93 % 1010.5 hPa 0.0 l/m 0.0 km/h (0 Bft) N 0.00 h 0 W/m 8.2 C 9.3 C 0.2 km/h (0 Bft)
26.09.2007 21:00 9.1 C 93 % 1010.5 hPa 0.2 l/m 0.1 km/h (0 Bft) O 0.00 h 0 W/m 8.0 C 9.1 C 0.5 km/h (0 Bft)
26.09.2007 22:00 8.8 C 94 % 1010.2 hPa 0.2 l/m 0.1 km/h (0 Bft) O 0.00 h 0 W/m 7.9 C 8.8 C 0.4 km/h (0 Bft)
26.09.2007 23:00 8.8 C 94 % 1009.5 hPa 0.6 l/m 0.0 km/h (0 Bft) N 0.00 h 0 W/m 7.9 C 8.8 C 0.0 km/h (0 Bft)
27.09.2007 00:00 8.7 C 95 % 1008.9 hPa 1.0 l/m 0.1 km/h (0 Bft) O 0.00 h 0 W/m 7.9 C 8.7 C 0.7 km/h (0 Bft)
27.09.2007 01:00 8.7 C 95 % 1008.2 hPa 1.6 l/m 0.4 km/h (0 Bft) O 0.00 h 0 W/m 7.9 C 8.7 C 1.3 km/h (1 Bft)
27.09.2007 02:00 8.4 C 95 % 1007.8 hPa 1.4 l/m 0.2 km/h (0 Bft) O 0.00 h 0 W/m 7.7 C 8.4 C 0.6 km/h (0 Bft)
27.09.2007 03:00 8.3 C 96 % 1007.1 hPa 1.2 l/m 0.8 km/h (0 Bft) O 0.00 h 0 W/m 7.7 C 8.2 C 1.6 km/h (1 Bft)
27.09.2007 04:00 8.0 C 97 % 1006.6 hPa 0.2 l/m 0.1 km/h (0 Bft) SO 0.00 h 0 W/m 7.5 C 8.0 C 0.6 km/h (0 Bft)
27.09.2007 05:00 7.9 C 97 % 1006.2 hPa 0.0 l/m 0.0 km/h (0 Bft) N 0.00 h 0 W/m 7.5 C 7.9 C 0.0 km/h (0 Bft)
27.09.2007 06:00 8.0 C 97 % 1005.9 hPa 0.0 l/m 0.0 km/h (0 Bft) N 0.00 h 0 W/m 7.6 C 8.0 C 0.0 km/h (0 Bft)
27.09.2007 07:00 8.1 C 97 % 1005.6 hPa 0.4 l/m 0.0 km/h (0 Bft) N 0.00 h 6 W/m 7.7 C 8.1 C 0.1 km/h (0 Bft)
27.09.2007 08:00 8.1 C 97 % 1005.7 hPa 0.8 l/m 0.0 km/h (0 Bft) N 0.00 h 28 W/m 7.7 C 8.1 C 0.1 km/h (0 Bft)
27.09.2007 09:00 8.6 C 97 % 1005.3 hPa 0.4 l/m 0.1 km/h (0 Bft) SO 0.00 h 124 W/m 8.2 C 8.6 C 0.5 km/h (0 Bft)
27.09.2007 10:00 9.2 C 98 % 1005.1 hPa 0.0 l/m 1.1 km/h (1 Bft) W 0.00 h 206 W/m 8.9 C 9.2 C 2.2 km/h (1 Bft)
27.09.2007 11:00 9.3 C 95 % 1004.8 hPa 0.0 l/m 1.2 km/h (1 Bft) NW 0.00 h 188 W/m 8.5 C 9.3 C 2.2 km/h (1 Bft)
27.09.2007 12:00 10.5 C 88 % 1004.6 hPa 0.0 l/m 0.9 km/h (0 Bft) W 0.08 h 248 W/m 8.5 C 10.5 C 2.4 km/h (1 Bft)
27.09.2007 13:00 10.7 C 84 % 1004.2 hPa 0.0 l/m 2.2 km/h (1 Bft) W 0.00 h 198 W/m 8.2 C 10.7 C 4.2 km/h (1 Bft)
27.09.2007 14:00 10.6 C 84 % 1004.0 hPa 0.0 l/m 1.6 km/h (1 Bft) W 0.00 h 144 W/m 8.1 C 10.6 C 2.7 km/h (1 Bft)
27.09.2007 15:00 11.2 C 80 % 1003.9 hPa 0.0 l/m 2.7 km/h (1 Bft) S-SO 0.08 h 152 W/m 7.9 C 11.2 C 5.9 km/h (2 Bft)
27.09.2007 16:00 11.0 C 82 % 1003.9 hPa 0.0 l/m 1.2 km/h (1 Bft) S 0.00 h 99 W/m 8.1 C 11.0 C 3.5 km/h (1 Bft)
27.09.2007 17:00 10.2 C 87 % 1004.1 hPa 0.0 l/m 2.9 km/h (1 Bft) W-NW 0.00 h 30 W/m 8.1 C 10.2 C 5.2 km/h (1 Bft)
27.09.2007 18:00 9.7 C 89 % 1004.3 hPa 0.0 l/m 2.2 km/h (1 Bft) W-SW 0.00 h 13 W/m 8.0 C 9.7 C 4.4 km/h (1 Bft)
27.09.2007 19:00 9.6 C 89 % 1004.6 hPa 0.0 l/m 1.1 km/h (1 Bft) N-NW 0.00 h 0 W/m 7.8 C 9.6 C 2.2 km/h (1 Bft)
27.09.2007 20:00 9.2 C 89 % 1005.2 hPa 0.0 l/m 0.8 km/h (0 Bft) S 0.00 h 0 W/m 7.5 C 9.2 C 1.9 km/h (1 Bft)
27.09.2007 21:00 8.0 C 92 % 1005.3 hPa 0.0 l/m 3.5 km/h (1 Bft) O-SO 0.00 h 0 W/m 6.8 C 7.7 C 5.2 km/h (1 Bft)
27.09.2007 22:00 7.6 C 94 % 1005.4 hPa 0.0 l/m 1.3 km/h (1 Bft) O-SO 0.00 h 0 W/m 6.8 C 7.5 C 2.1 km/h (1 Bft)
27.09.2007 23:00 7.2 C 95 % 1005.3 hPa 0.0 l/m 1.9 km/h (1 Bft) O-SO 0.00 h 0 W/m 6.4 C 7.1 C 2.7 km/h (1 Bft)
28.09.2007 00:00 7.0 C 97 % 1005.6 hPa 0.0 l/m 1.3 km/h (1 Bft) O-SO 0.00 h 0 W/m 6.5 C 6.9 C 2.0 km/h (1 Bft)
28.09.2007 01:00 7.1 C 97 % 1005.2 hPa 0.0 l/m 0.8 km/h (0 Bft) W-SW 0.00 h 0 W/m 6.8 C 7.1 C 1.9 km/h (1 Bft)
28.09.2007 02:00 7.2 C 98 % 1005.7 hPa 0.0 l/m 0.3 km/h (0 Bft) N-NO 0.00 h 0 W/m 6.9 C 7.2 C 1.1 km/h (0 Bft)
28.09.2007 03:00 7.3 C 98 % 1005.4 hPa 0.0 l/m 0.3 km/h (0 Bft) N 0.00 h 0 W/m 7.0 C 7.3 C 1.1 km/h (1 Bft)
28.09.2007 04:00 7.2 C 98 % 1005.3 hPa 0.0 l/m 0.3 km/h (0 Bft) N 0.00 h 0 W/m 6.9 C 7.2 C 1.0 km/h (0 Bft)
28.09.2007 05:00 7.1 C 98 % 1005.3 hPa 0.0 l/m 0.2 km/h (0 Bft) N 0.00 h 0 W/m 6.8 C 7.1 C 0.6 km/h (0 Bft)
28.09.2007 06:00 7.3 C 98 % 1005.4 hPa 0.0 l/m 0.7 km/h (0 Bft) N 0.00 h 0 W/m 7.0 C 7.3 C 2.1 km/h (1 Bft)
28.09.2007 07:00 7.1 C 98 % 1005.7 hPa 0.0 l/m 0.1 km/h (0 Bft) N 0.00 h 8 W/m 6.8 C 7.1 C 0.4 km/h (0 Bft)
28.09.2007 08:00 7.4 C 98 % 1005.9 hPa 0.0 l/m 0.7 km/h (0 Bft) W-NW 0.00 h 38 W/m 7.1 C 7.4 C 1.8 km/h (1 Bft)
28.09.2007 09:00 8.6 C 96 % 1006.3 hPa 0.0 l/m 0.5 km/h (0 Bft) W-NW 0.20 h 158 W/m 8.1 C 8.6 C 1.2 km/h (1 Bft)
28.09.2007 10:00 10.6 C 87 % 1006.4 hPa 0.0 l/m 0.5 km/h (0 Bft) NW 0.63 h 349 W/m 8.5 C 10.6 C 1.4 km/h (1 Bft)
28.09.2007 11:00 11.6 C 82 % 1006.6 hPa 0.0 l/m 2.3 km/h (1 Bft) N-NW 0.23 h 255 W/m 8.7 C 11.6 C 4.1 km/h (1 Bft)
28.09.2007 12:00 12.4 C 79 % 1006.4 hPa 0.0 l/m 3.1 km/h (1 Bft) N-NW 0.00 h 176 W/m 8.9 C 12.4 C 5.4 km/h (1 Bft)
28.09.2007 13:00 12.7 C 75 % 1006.9 hPa 0.0 l/m 5.4 km/h (1 Bft) W-SW 0.03 h 215 W/m 8.3 C 12.7 C 10.2 km/h (2 Bft)
28.09.2007 14:00 12.7 C 75 % 1007.2 hPa 0.0 l/m 4.2 km/h (1 Bft) SW 0.00 h 158 W/m 8.3 C 12.7 C 8.8 km/h (2 Bft)
28.09.2007 15:00 13.2 C 74 % 1007.6 hPa 0.0 l/m 5.1 km/h (1 Bft) W-SW 0.07 h 221 W/m 8.5 C 13.2 C 9.4 km/h (2 Bft)
28.09.2007 16:00 12.7 C 74 % 1008.0 hPa 0.0 l/m 6.5 km/h (2 Bft) W 0.02 h 94 W/m 8.2 C 12.7 C 11.2 km/h (2 Bft)
28.09.2007 17:00 12.1 C 76 % 1008.7 hPa 0.0 l/m 4.6 km/h (1 Bft) W-SW 0.00 h 64 W/m 8.0 C 12.1 C 8.9 km/h (2 Bft)
28.09.2007 18:00 11.9 C 75 % 1009.3 hPa 0.0 l/m 6.2 km/h (2 Bft) W-SW 0.00 h 27 W/m 7.7 C 11.9 C 11.4 km/h (2 Bft)
28.09.2007 19:00 11.5 C 79 % 1010.1 hPa 0.2 l/m 4.9 km/h (1 Bft) W-SW 0.00 h 0 W/m 8.0 C 11.5 C 9.0 km/h (2 Bft)
28.09.2007 20:00 10.5 C 89 % 1011.1 hPa 0.2 l/m 2.5 km/h (1 Bft) W-SW 0.00 h 0 W/m 8.8 C 10.5 C 5.7 km/h (1 Bft)
28.09.2007 21:00 10.6 C 89 % 1011.5 hPa 0.2 l/m 3.1 km/h (1 Bft) W-SW 0.00 h 0 W/m 8.8 C 10.6 C 7.2 km/h (2 Bft)
28.09.2007 22:00 10.3 C 91 % 1011.9 hPa 1.0 l/m 2.0 km/h (1 Bft) S 0.00 h 0 W/m 8.9 C 10.3 C 5.3 km/h (1 Bft)
28.09.2007 23:00 10.0 C 95 % 1012.2 hPa 1.4 l/m 3.4 km/h (1 Bft) W-SW 0.00 h 0 W/m 9.3 C 9.9 C 7.0 km/h (2 Bft)
29.09.2007 00:00 9.9 C 96 % 1012.8 hPa 1.4 l/m 1.7 km/h (1 Bft) S-SW 0.00 h 0 W/m 9.3 C 9.9 C 4.8 km/h (1 Bft)
29.09.2007 01:00 9.9 C 96 % 1013.5 hPa 1.4 l/m 2.1 km/h (1 Bft) S-SO 0.00 h 0 W/m 9.3 C 9.9 C 4.7 km/h (1 Bft)
29.09.2007 02:00 9.9 C 96 % 1014.0 hPa 0.4 l/m 2.4 km/h (1 Bft) S-SO 0.00 h 0 W/m 9.3 C 9.8 C 4.6 km/h (1 Bft)
29.09.2007 03:00 10.1 C 96 % 1014.0 hPa 0.0 l/m 1.1 km/h (1 Bft) S-SO 0.00 h 0 W/m 9.4 C 10.1 C 3.1 km/h (1 Bft)
29.09.2007 04:00 9.9 C 96 % 1014.5 hPa 0.0 l/m 0.4 km/h (0 Bft) S-SW 0.00 h 0 W/m 9.3 C 9.9 C 1.4 km/h (1 Bft)
29.09.2007 05:00 9.6 C 96 % 1014.7 hPa 0.0 l/m 0.4 km/h (0 Bft) S 0.00 h 0 W/m 9.0 C 9.6 C 1.3 km/h (1 Bft)
29.09.2007 06:00 9.2 C 95 % 1015.1 hPa 0.0 l/m 1.4 km/h (1 Bft) S 0.00 h 0 W/m 8.4 C 9.1 C 4.0 km/h (1 Bft)
29.09.2007 07:00 9.0 C 95 % 1015.6 hPa 0.0 l/m 2.7 km/h (1 Bft) S 0.05 h 19 W/m 8.2 C 8.9 C 6.5 km/h (2 Bft)
29.09.2007 08:00 9.6 C 93 % 1016.3 hPa 0.0 l/m 3.4 km/h (1 Bft) S 0.40 h 104 W/m 8.5 C 9.5 C 7.5 km/h (2 Bft)
29.09.2007 09:00 10.8 C 90 % 1016.5 hPa 0.0 l/m 1.7 km/h (1 Bft) W-SW 0.73 h 224 W/m 9.3 C 10.8 C 4.4 km/h (1 Bft)
29.09.2007 10:00 12.9 C 83 % 1016.4 hPa 0.0 l/m 2.3 km/h (1 Bft) SW 1.00 h 405 W/m 10.1 C 12.9 C 5.9 km/h (2 Bft)
29.09.2007 11:00 14.6 C 73 % 1016.3 hPa 0.0 l/m 5.1 km/h (1 Bft) S-SO 1.00 h 521 W/m 9.7 C 14.6 C 10.1 km/h (2 Bft)
29.09.2007 12:00 15.8 C 69 % 1016.2 hPa 0.0 l/m 4.1 km/h (1 Bft) W 0.70 h 512 W/m 10.1 C 15.8 C 7.1 km/h (2 Bft)
29.09.2007 13:00 15.6 C 67 % 1016.0 hPa 0.0 l/m 3.3 km/h (1 Bft) W-NW 0.55 h 406 W/m 9.4 C 15.6 C 5.9 km/h (2 Bft)
29.09.2007 14:00 17.8 C 59 % 1015.6 hPa 0.0 l/m 2.3 km/h (1 Bft) W-NW 1.00 h 599 W/m 9.8 C 17.8 C 4.5 km/h (1 Bft)
29.09.2007 15:00 18.5 C 58 % 1015.3 hPa 0.0 l/m 4.0 km/h (1 Bft) N-NW 0.73 h 423 W/m 10.0 C 18.5 C 6.6 km/h (2 Bft)
29.09.2007 16:00 18.0 C 56 % 1015.6 hPa 0.0 l/m 2.1 km/h (1 Bft) W 0.63 h 259 W/m 9.0 C 18.0 C 4.2 km/h (1 Bft)
29.09.2007 17:00 16.3 C 67 % 1015.9 hPa 0.0 l/m 1.9 km/h (1 Bft) W 0.00 h 98 W/m 10.2 C 16.3 C 3.6 km/h (1 Bft)
29.09.2007 18:00 15.5 C 71 % 1016.3 hPa 0.0 l/m 1.0 km/h (0 Bft) SO 0.00 h 34 W/m 10.2 C 15.5 C 2.8 km/h (1 Bft)
29.09.2007 19:00 14.2 C 77 % 1017.0 hPa 0.0 l/m 2.9 km/h (1 Bft) SO 0.00 h 6 W/m 10.2 C 14.2 C 5.0 km/h (1 Bft)
29.09.2007 20:00 12.8 C 84 % 1017.9 hPa 0.0 l/m 0.7 km/h (0 Bft) O-SO 0.00 h 0 W/m 10.2 C 12.8 C 1.4 km/h (1 Bft)
29.09.2007 21:00 11.7 C 89 % 1018.6 hPa 0.0 l/m 2.0 km/h (1 Bft) O-SO 0.00 h 0 W/m 10.0 C 11.7 C 3.2 km/h (1 Bft)
29.09.2007 22:00 11.2 C 92 % 1018.9 hPa 0.0 l/m 1.0 km/h (0 Bft) SO 0.00 h 0 W/m 9.9 C 11.2 C 1.8 km/h (1 Bft)
29.09.2007 23:00 11.1 C 94 % 1019.2 hPa 0.0 l/m 0.1 km/h (0 Bft) SO 0.00 h 0 W/m 10.2 C 11.1 C 0.5 km/h (0 Bft)
30.09.2007 00:00 11.0 C 94 % 1019.7 hPa 0.0 l/m 0.2 km/h (0 Bft) W-SW 0.00 h 0 W/m 10.1 C 11.0 C 0.6 km/h (0 Bft)
30.09.2007 01:00 11.1 C 93 % 1020.1 hPa 0.0 l/m 0.4 km/h (0 Bft) SO 0.00 h 0 W/m 10.1 C 11.1 C 0.7 km/h (0 Bft)
30.09.2007 02:00 11.1 C 97 % 1020.5 hPa 1.4 l/m 0.7 km/h (0 Bft) W-NW 0.00 h 0 W/m 10.5 C 11.1 C 1.5 km/h (1 Bft)
30.09.2007 03:00 11.1 C 99 % 1020.6 hPa 0.0 l/m 1.5 km/h (1 Bft) SO 0.00 h 0 W/m 10.9 C 11.1 C 2.5 km/h (1 Bft)
30.09.2007 04:00 11.0 C 100 % 1020.6 hPa 0.2 l/m 0.0 km/h (0 Bft) N 0.00 h 0 W/m 10.9 C 11.0 C 0.1 km/h (0 Bft)
30.09.2007 05:00 10.8 C 100 % 1020.8 hPa 0.0 l/m 0.1 km/h (0 Bft) SO 0.00 h 0 W/m 10.8 C 10.8 C 0.4 km/h (0 Bft)
30.09.2007 06:00 10.8 C 100 % 1021.3 hPa 0.0 l/m 0.0 km/h (0 Bft) N 0.00 h 0 W/m 10.8 C 10.8 C 0.0 km/h (0 Bft)
30.09.2007 07:00 10.8 C 100 % 1022.0 hPa 0.0 l/m 0.0 km/h (0 Bft) N 0.00 h 8 W/m 10.8 C 10.8 C 0.0 km/h (0 Bft)
30.09.2007 08:00 11.1 C 100 % 1022.8 hPa 0.0 l/m 0.0 km/h (0 Bft) O-NO 0.00 h 28 W/m 11.1 C 11.1 C 0.4 km/h (0 Bft)
30.09.2007 09:00 11.7 C 100 % 1023.2 hPa 0.0 l/m 0.0 km/h (0 Bft) O-NO 0.00 h 92 W/m 11.7 C 11.7 C 0.2 km/h (0 Bft)
30.09.2007 10:00 12.5 C 100 % 1023.7 hPa 0.0 l/m 0.1 km/h (0 Bft) S 0.00 h 140 W/m 12.5 C 12.5 C 0.8 km/h (0 Bft)
30.09.2007 11:00 13.4 C 98 % 1024.1 hPa 0.0 l/m 0.2 km/h (0 Bft) S 0.07 h 213 W/m 13.1 C 13.4 C 1.4 km/h (1 Bft)
30.09.2007 12:00 14.8 C 90 % 1024.0 hPa 0.0 l/m 0.3 km/h (0 Bft) S-SO 0.00 h 221 W/m 13.1 C 14.8 C 1.9 km/h (1 Bft)
30.09.2007 13:00 15.5 C 86 % 1023.9 hPa 0.0 l/m 1.1 km/h (0 Bft) S-SO 0.00 h 238 W/m 13.0 C 15.5 C 2.8 km/h (1 Bft)
30.09.2007 14:00 16.5 C 81 % 1023.5 hPa 0.0 l/m 1.4 km/h (1 Bft) SW 0.33 h 345 W/m 13.3 C 16.5 C 3.2 km/h (1 Bft)
30.09.2007 15:00 17.5 C 77 % 1023.2 hPa 0.0 l/m 2.0 km/h (1 Bft) W-NW 0.65 h 356 W/m 13.4 C 17.5 C 3.9 km/h (1 Bft)
30.09.2007 16:00 18.0 C 75 % 1022.8 hPa 0.0 l/m 1.4 km/h (1 Bft) W 0.73 h 301 W/m 13.5 C 18.0 C 3.1 km/h (1 Bft)
30.09.2007 17:00 17.1 C 78 % 1022.8 hPa 0.0 l/m 0.7 km/h (0 Bft) W-SW 0.13 h 108 W/m 13.3 C 17.1 C 2.3 km/h (1 Bft)
30.09.2007 18:00 16.3 C 80 % 1023.0 hPa 0.0 l/m 0.0 km/h (0 Bft) N 0.00 h 28 W/m 12.8 C 16.3 C 0.2 km/h (0 Bft)
30.09.2007 19:00 14.8 C 90 % 1023.4 hPa 0.0 l/m 1.0 km/h (0 Bft) S 0.00 h 5 W/m 13.1 C 14.8 C 2.1 km/h (1 Bft)
30.09.2007 20:00 14.1 C 92 % 1023.7 hPa 0.0 l/m 1.3 km/h (1 Bft) O-SO 0.00 h 0 W/m 12.8 C 14.1 C 2.5 km/h (1 Bft)
30.09.2007 21:00 13.6 C 96 % 1024.1 hPa 0.0 l/m 0.2 km/h (0 Bft) O-SO 0.00 h 0 W/m 12.9 C 13.6 C 0.4 km/h (0 Bft)
30.09.2007 22:00 13.0 C 97 % 1024.3 hPa 0.0 l/m 0.9 km/h (0 Bft) O-SO 0.00 h 0 W/m 12.6 C 13.0 C 1.6 km/h (1 Bft)
30.09.2007 23:00 12.7 C 97 % 1024.2 hPa 0.0 l/m 0.2 km/h (0 Bft) O-SO 0.00 h 0 W/m 12.3 C 12.7 C 0.5 km/h (0 Bft)
Min-Datum _ 28.09.07 24.09.07 27.09.07 - 24.09.07 - - - 27.09.07 28.09.07 24.09.07
_ Min-Zeit 01:00 15:37 15:15 - 00:00 - - - 23:21 00:05 00:00
Minimum _ 6.8 C 48 % 1003.8 hPa - 0.0 km/h (0 Bft) - - - 6.2 C 6.3 C 0.0 km/h (0 Bft)
Max-Datum _ 24.09.07 30.09.07 30.09.07 27.09.07 25.09.07 - 24.09.07 30.09.07 24.09.07 24.09.07 25.09.07
_ Max-Zeit 15:54 04:19 22:45 01:00 03:30 - 07:26 14:17 12:56 15:54 03:30
Maximum _ 25.0 C 100 % 1024.4 hPa 1.6 l/m 39.3 km/h
W (6 Bft)
- 0.02 h 846 W/m 16.9 C 25.0 C 53.9 km/h
W (7 Bft)
Durchschnitt _ 12.2 C 86 % 1014.1 hPa #18.4 l/m 2.1 km/h (1 Bft) W #19:09 h 178 W/m 9.8 C 12.2 C 4.0 km/h (1 Bft)
© Kaiko 2007